sensor_id;sensor_type;location;lat;lon;timestamp;temperature;humidity
33067;DHT22;19428;49.024;8.366;2022-07-05T00:01:05;19.00;99.90
33067;DHT22;19428;49.024;8.366;2022-07-05T00:03:30;18.80;99.90
33067;DHT22;19428;49.024;8.366;2022-07-05T00:05:57;18.80;99.90
33067;DHT22;19428;49.024;8.366;2022-07-05T00:08:22;18.70;99.90
33067;DHT22;19428;49.024;8.366;2022-07-05T00:10:48;18.50;99.90
33067;DHT22;19428;49.024;8.366;2022-07-05T00:13:14;18.40;99.90
33067;DHT22;19428;49.024;8.366;2022-07-05T00:15:40;18.10;99.90
33067;DHT22;19428;49.024;8.366;2022-07-05T00:18:05;18.00;99.90
33067;DHT22;19428;49.024;8.366;2022-07-05T00:20:31;18.00;99.90
33067;DHT22;19428;49.024;8.366;2022-07-05T00:22:57;17.80;99.90
33067;DHT22;19428;49.024;8.366;2022-07-05T00:25:22;17.80;99.90
33067;DHT22;19428;49.024;8.366;2022-07-05T00:27:48;17.80;99.90
33067;DHT22;19428;49.024;8.366;2022-07-05T00:30:14;18.00;99.90
33067;DHT22;19428;49.024;8.366;2022-07-05T00:32:39;17.80;99.90
33067;DHT22;19428;49.024;8.366;2022-07-05T00:35:06;18.10;99.90
33067;DHT22;19428;49.024;8.366;2022-07-05T00:37:32;18.20;99.90
33067;DHT22;19428;49.024;8.366;2022-07-05T00:39:58;18.20;99.90
33067;DHT22;19428;49.024;8.366;2022-07-05T00:42:24;18.10;99.90
33067;DHT22;19428;49.024;8.366;2022-07-05T00:44:50;17.90;99.90
33067;DHT22;19428;49.024;8.366;2022-07-05T00:47:15;17.40;99.90
33067;DHT22;19428;49.024;8.366;2022-07-05T00:49:41;17.40;99.90
33067;DHT22;19428;49.024;8.366;2022-07-05T00:52:08;17.40;99.90
33067;DHT22;19428;49.024;8.366;2022-07-05T00:54:35;17.30;99.90
33067;DHT22;19428;49.024;8.366;2022-07-05T00:57:02;17.40;99.90
33067;DHT22;19428;49.024;8.366;2022-07-05T00:59:29;17.30;99.90
33067;DHT22;19428;49.024;8.366;2022-07-05T01:01:55;17.30;99.90
33067;DHT22;19428;49.024;8.366;2022-07-05T01:04:22;17.10;99.90
33067;DHT22;19428;49.024;8.366;2022-07-05T01:06:49;17.10;99.90
33067;DHT22;19428;49.024;8.366;2022-07-05T01:09:16;17.30;99.90
33067;DHT22;19428;49.024;8.366;2022-07-05T01:11:44;17.30;99.90
33067;DHT22;19428;49.024;8.366;2022-07-05T01:14:13;17.10;99.90
33067;DHT22;19428;49.024;8.366;2022-07-05T01:16:40;17.10;99.90
33067;DHT22;19428;49.024;8.366;2022-07-05T01:19:06;17.30;99.90
33067;DHT22;19428;49.024;8.366;2022-07-05T01:21:35;17.30;99.90
33067;DHT22;19428;49.024;8.366;2022-07-05T01:24:03;17.30;99.90
33067;DHT22;19428;49.024;8.366;2022-07-05T01:26:29;17.00;99.90
33067;DHT22;19428;49.024;8.366;2022-07-05T01:28:56;16.90;99.90
33067;DHT22;19428;49.024;8.366;2022-07-05T01:31:21;17.00;99.90
33067;DHT22;19428;49.024;8.366;2022-07-05T01:33:47;17.20;99.90
33067;DHT22;19428;49.024;8.366;2022-07-05T01:36:13;16.90;99.90
33067;DHT22;19428;49.024;8.366;2022-07-05T01:38:39;16.60;99.90
33067;DHT22;19428;49.024;8.366;2022-07-05T01:41:05;16.50;99.90
33067;DHT22;19428;49.024;8.366;2022-07-05T01:43:31;16.40;99.90
33067;DHT22;19428;49.024;8.366;2022-07-05T01:45:57;16.40;99.90
33067;DHT22;19428;49.024;8.366;2022-07-05T01:48:23;16.50;99.90
33067;DHT22;19428;49.024;8.366;2022-07-05T01:51:13;16.50;99.90
33067;DHT22;19428;49.024;8.366;2022-07-05T01:53:39;16.30;99.90
33067;DHT22;19428;49.024;8.366;2022-07-05T01:56:05;16.30;99.90
33067;DHT22;19428;49.024;8.366;2022-07-05T01:58:31;16.40;99.90
33067;DHT22;19428;49.024;8.366;2022-07-05T02:00:58;16.40;99.90
33067;DHT22;19428;49.024;8.366;2022-07-05T02:03:24;16.30;99.90
33067;DHT22;19428;49.024;8.366;2022-07-05T02:05:50;16.20;99.90
33067;DHT22;19428;49.024;8.366;2022-07-05T02:08:17;16.00;99.90
33067;DHT22;19428;49.024;8.366;2022-07-05T02:10:43;15.90;99.90
33067;DHT22;19428;49.024;8.366;2022-07-05T02:13:10;15.90;99.90
33067;DHT22;19428;49.024;8.366;2022-07-05T02:15:38;16.00;99.90
33067;DHT22;19428;49.024;8.366;2022-07-05T02:18:05;16.20;99.90
33067;DHT22;19428;49.024;8.366;2022-07-05T02:20:31;16.10;99.90
33067;DHT22;19428;49.024;8.366;2022-07-05T02:22:57;16.10;99.90
33067;DHT22;19428;49.024;8.366;2022-07-05T02:25:23;15.90;99.90
33067;DHT22;19428;49.024;8.366;2022-07-05T02:27:50;15.90;99.90
33067;DHT22;19428;49.024;8.366;2022-07-05T02:30:16;15.80;99.90
33067;DHT22;19428;49.024;8.366;2022-07-05T02:32:42;15.70;99.90
33067;DHT22;19428;49.024;8.366;2022-07-05T02:35:09;15.80;99.90
33067;DHT22;19428;49.024;8.366;2022-07-05T02:37:35;15.80;99.90
33067;DHT22;19428;49.024;8.366;2022-07-05T02:40:01;15.70;99.90
33067;DHT22;19428;49.024;8.366;2022-07-05T02:42:26;15.60;99.90
33067;DHT22;19428;49.024;8.366;2022-07-05T02:44:52;15.70;99.90
33067;DHT22;19428;49.024;8.366;2022-07-05T02:47:18;15.60;99.90
33067;DHT22;19428;49.024;8.366;2022-07-05T02:49:43;15.60;99.90
33067;DHT22;19428;49.024;8.366;2022-07-05T02:52:09;15.80;99.90
33067;DHT22;19428;49.024;8.366;2022-07-05T02:54:34;15.50;99.90
33067;DHT22;19428;49.024;8.366;2022-07-05T02:57:00;15.70;99.90
33067;DHT22;19428;49.024;8.366;2022-07-05T02:59:26;15.60;99.90
33067;DHT22;19428;49.024;8.366;2022-07-05T03:01:52;15.60;99.90
33067;DHT22;19428;49.024;8.366;2022-07-05T03:04:17;15.60;99.90
33067;DHT22;19428;49.024;8.366;2022-07-05T03:06:44;15.40;99.90
33067;DHT22;19428;49.024;8.366;2022-07-05T03:09:09;15.30;99.90
33067;DHT22;19428;49.024;8.366;2022-07-05T03:11:35;15.30;99.90
33067;DHT22;19428;49.024;8.366;2022-07-05T03:14:01;15.20;99.90
33067;DHT22;19428;49.024;8.366;2022-07-05T03:16:26;15.40;99.90
33067;DHT22;19428;49.024;8.366;2022-07-05T03:18:52;15.40;99.90
33067;DHT22;19428;49.024;8.366;2022-07-05T03:21:18;15.40;99.90
33067;DHT22;19428;49.024;8.366;2022-07-05T03:23:43;15.50;99.90
33067;DHT22;19428;49.024;8.366;2022-07-05T03:26:10;15.40;99.90
33067;DHT22;19428;49.024;8.366;2022-07-05T03:28:35;15.20;99.90
33067;DHT22;19428;49.024;8.366;2022-07-05T03:31:01;15.10;99.90
33067;DHT22;19428;49.024;8.366;2022-07-05T03:33:27;15.00;99.90
33067;DHT22;19428;49.024;8.366;2022-07-05T03:35:52;15.00;99.90
33067;DHT22;19428;49.024;8.366;2022-07-05T03:38:18;15.10;99.90
33067;DHT22;19428;49.024;8.366;2022-07-05T03:40:44;15.20;99.90
33067;DHT22;19428;49.024;8.366;2022-07-05T03:43:09;15.20;99.90
33067;DHT22;19428;49.024;8.366;2022-07-05T03:45:35;15.30;99.90
33067;DHT22;19428;49.024;8.366;2022-07-05T03:48:01;15.30;99.90
33067;DHT22;19428;49.024;8.366;2022-07-05T03:50:27;15.30;99.90
33067;DHT22;19428;49.024;8.366;2022-07-05T03:52:53;15.20;99.90
33067;DHT22;19428;49.024;8.366;2022-07-05T03:55:19;15.40;99.90
33067;DHT22;19428;49.024;8.366;2022-07-05T03:57:45;15.20;99.90
33067;DHT22;19428;49.024;8.366;2022-07-05T04:00:11;15.20;99.90
33067;DHT22;19428;49.024;8.366;2022-07-05T04:02:37;15.30;99.90
33067;DHT22;19428;49.024;8.366;2022-07-05T04:05:04;15.40;99.90
33067;DHT22;19428;49.024;8.366;2022-07-05T04:07:29;15.70;99.90
33067;DHT22;19428;49.024;8.366;2022-07-05T04:09:55;15.80;99.90
33067;DHT22;19428;49.024;8.366;2022-07-05T04:12:21;15.90;99.90
33067;DHT22;19428;49.024;8.366;2022-07-05T04:14:46;16.10;99.90
33067;DHT22;19428;49.024;8.366;2022-07-05T04:17:12;16.40;99.90
33067;DHT22;19428;49.024;8.366;2022-07-05T04:19:38;16.60;99.90
33067;DHT22;19428;49.024;8.366;2022-07-05T04:22:04;16.80;99.90
33067;DHT22;19428;49.024;8.366;2022-07-05T04:24:30;17.00;99.90
33067;DHT22;19428;49.024;8.366;2022-07-05T04:26:55;17.00;99.90
33067;DHT22;19428;49.024;8.366;2022-07-05T04:29:21;17.00;99.90
33067;DHT22;19428;49.024;8.366;2022-07-05T04:31:47;17.30;99.90
33067;DHT22;19428;49.024;8.366;2022-07-05T04:34:12;17.40;99.90
33067;DHT22;19428;49.024;8.366;2022-07-05T04:36:38;17.90;99.90
33067;DHT22;19428;49.024;8.366;2022-07-05T04:39:07;18.30;99.90
33067;DHT22;19428;49.024;8.366;2022-07-05T04:41:33;18.40;99.90
33067;DHT22;19428;49.024;8.366;2022-07-05T04:43:59;18.40;99.90
33067;DHT22;19428;49.024;8.366;2022-07-05T04:46:24;18.50;99.90
33067;DHT22;19428;49.024;8.366;2022-07-05T04:48:50;18.40;99.90
33067;DHT22;19428;49.024;8.366;2022-07-05T04:51:16;18.50;99.90
33067;DHT22;19428;49.024;8.366;2022-07-05T04:53:42;18.80;99.90
33067;DHT22;19428;49.024;8.366;2022-07-05T04:56:07;18.90;99.90
33067;DHT22;19428;49.024;8.366;2022-07-05T04:58:33;18.70;99.90
33067;DHT22;19428;49.024;8.366;2022-07-05T05:01:00;18.70;99.90
33067;DHT22;19428;49.024;8.366;2022-07-05T05:03:25;18.50;99.90
33067;DHT22;19428;49.024;8.366;2022-07-05T05:05:51;18.60;99.90
33067;DHT22;19428;49.024;8.366;2022-07-05T05:08:17;18.60;99.90
33067;DHT22;19428;49.024;8.366;2022-07-05T05:10:42;18.80;99.90
33067;DHT22;19428;49.024;8.366;2022-07-05T05:13:08;18.60;99.90
33067;DHT22;19428;49.024;8.366;2022-07-05T05:15:34;18.40;99.90
33067;DHT22;19428;49.024;8.366;2022-07-05T05:17:59;18.50;99.90
33067;DHT22;19428;49.024;8.366;2022-07-05T05:20:25;18.70;99.90
33067;DHT22;19428;49.024;8.366;2022-07-05T05:22:51;18.80;99.90
33067;DHT22;19428;49.024;8.366;2022-07-05T05:25:17;18.80;99.90
33067;DHT22;19428;49.024;8.366;2022-07-05T05:27:47;18.80;99.90
33067;DHT22;19428;49.024;8.366;2022-07-05T05:30:15;18.80;99.90
33067;DHT22;19428;49.024;8.366;2022-07-05T05:32:40;18.80;99.90
33067;DHT22;19428;49.024;8.366;2022-07-05T05:35:07;18.80;99.90
33067;DHT22;19428;49.024;8.366;2022-07-05T05:37:54;19.10;99.90
33067;DHT22;19428;49.024;8.366;2022-07-05T05:40:21;19.50;99.90
33067;DHT22;19428;49.024;8.366;2022-07-05T05:42:47;19.20;99.90
33067;DHT22;19428;49.024;8.366;2022-07-05T05:45:14;19.50;99.90
33067;DHT22;19428;49.024;8.366;2022-07-05T05:47:57;19.40;99.90
33067;DHT22;19428;49.024;8.366;2022-07-05T05:50:29;19.60;99.90
33067;DHT22;19428;49.024;8.366;2022-07-05T05:52:55;19.90;99.90
33067;DHT22;19428;49.024;8.366;2022-07-05T05:55:21;20.10;99.90
33067;DHT22;19428;49.024;8.366;2022-07-05T05:57:48;19.80;99.90
33067;DHT22;19428;49.024;8.366;2022-07-05T06:00:14;19.90;99.90
33067;DHT22;19428;49.024;8.366;2022-07-05T06:02:41;20.40;99.90
33067;DHT22;19428;49.024;8.366;2022-07-05T06:05:07;20.20;99.90
33067;DHT22;19428;49.024;8.366;2022-07-05T06:08:02;20.10;99.90
33067;DHT22;19428;49.024;8.366;2022-07-05T06:10:30;20.50;99.90
33067;DHT22;19428;49.024;8.366;2022-07-05T06:12:58;20.60;99.90
33067;DHT22;19428;49.024;8.366;2022-07-05T06:15:24;20.60;99.90
33067;DHT22;19428;49.024;8.366;2022-07-05T06:17:49;20.70;99.90
33067;DHT22;19428;49.024;8.366;2022-07-05T06:20:21;20.50;99.90
33067;DHT22;19428;49.024;8.366;2022-07-05T06:22:47;20.40;99.90
33067;DHT22;19428;49.024;8.366;2022-07-05T06:25:13;20.60;99.90
33067;DHT22;19428;49.024;8.366;2022-07-05T06:27:47;20.50;99.90
33067;DHT22;19428;49.024;8.366;2022-07-05T06:30:18;21.60;99.90
33067;DHT22;19428;49.024;8.366;2022-07-05T06:32:45;21.40;99.90
33067;DHT22;19428;49.024;8.366;2022-07-05T06:35:11;21.20;99.90
33067;DHT22;19428;49.024;8.366;2022-07-05T06:40:23;21.70;99.90
33067;DHT22;19428;49.024;8.366;2022-07-05T06:42:54;22.20;99.90
33067;DHT22;19428;49.024;8.366;2022-07-05T06:45:20;22.00;99.90
33067;DHT22;19428;49.024;8.366;2022-07-05T06:48:00;21.50;99.90
33067;DHT22;19428;49.024;8.366;2022-07-05T06:50:27;21.60;99.90
33067;DHT22;19428;49.024;8.366;2022-07-05T06:52:53;22.10;99.90
33067;DHT22;19428;49.024;8.366;2022-07-05T06:55:20;23.10;99.90
33067;DHT22;19428;49.024;8.366;2022-07-05T06:57:45;23.60;99.90
33067;DHT22;19428;49.024;8.366;2022-07-05T07:00:12;23.20;99.90
33067;DHT22;19428;49.024;8.366;2022-07-05T07:02:38;22.50;99.90
33067;DHT22;19428;49.024;8.366;2022-07-05T07:05:04;22.00;99.90
33067;DHT22;19428;49.024;8.366;2022-07-05T07:07:33;22.90;99.90
33067;DHT22;19428;49.024;8.366;2022-07-05T07:10:17;23.30;99.90
33067;DHT22;19428;49.024;8.366;2022-07-05T07:12:43;22.10;99.90
33067;DHT22;19428;49.024;8.366;2022-07-05T07:15:10;22.60;99.90
33067;DHT22;19428;49.024;8.366;2022-07-05T07:17:35;22.70;99.90
33067;DHT22;19428;49.024;8.366;2022-07-05T07:20:03;22.50;99.90
33067;DHT22;19428;49.024;8.366;2022-07-05T07:22:29;22.00;99.90
33067;DHT22;19428;49.024;8.366;2022-07-05T07:24:55;22.20;99.90
33067;DHT22;19428;49.024;8.366;2022-07-05T07:27:20;22.60;99.90
33067;DHT22;19428;49.024;8.366;2022-07-05T07:29:46;23.10;99.90
33067;DHT22;19428;49.024;8.366;2022-07-05T07:32:11;24.00;99.90
33067;DHT22;19428;49.024;8.366;2022-07-05T07:34:37;23.90;99.90
33067;DHT22;19428;49.024;8.366;2022-07-05T07:37:03;24.10;99.90
33067;DHT22;19428;49.024;8.366;2022-07-05T07:39:29;24.00;99.90
33067;DHT22;19428;49.024;8.366;2022-07-05T07:41:57;24.50;99.90
33067;DHT22;19428;49.024;8.366;2022-07-05T07:44:23;24.20;99.90
33067;DHT22;19428;49.024;8.366;2022-07-05T07:46:48;24.30;99.90
33067;DHT22;19428;49.024;8.366;2022-07-05T07:49:14;24.00;98.40
33067;DHT22;19428;49.024;8.366;2022-07-05T07:51:40;23.90;99.90
33067;DHT22;19428;49.024;8.366;2022-07-05T07:54:06;23.80;99.90
33067;DHT22;19428;49.024;8.366;2022-07-05T07:56:32;23.90;99.70
33067;DHT22;19428;49.024;8.366;2022-07-05T07:58:57;23.80;99.90
33067;DHT22;19428;49.024;8.366;2022-07-05T08:01:23;24.30;99.90
33067;DHT22;19428;49.024;8.366;2022-07-05T08:03:49;24.10;99.90
33067;DHT22;19428;49.024;8.366;2022-07-05T08:06:15;24.00;99.90
33067;DHT22;19428;49.024;8.366;2022-07-05T08:08:42;23.90;99.90
33067;DHT22;19428;49.024;8.366;2022-07-05T08:11:10;23.70;99.80
33067;DHT22;19428;49.024;8.366;2022-07-05T08:13:36;23.60;99.90
33067;DHT22;19428;49.024;8.366;2022-07-05T08:16:02;23.80;99.40
33067;DHT22;19428;49.024;8.366;2022-07-05T08:18:28;24.00;99.60
33067;DHT22;19428;49.024;8.366;2022-07-05T08:21:12;24.70;98.70
33067;DHT22;19428;49.024;8.366;2022-07-05T08:24:06;24.40;97.60
33067;DHT22;19428;49.024;8.366;2022-07-05T08:26:33;23.90;99.30
33067;DHT22;19428;49.024;8.366;2022-07-05T08:28:59;23.40;99.60
33067;DHT22;19428;49.024;8.366;2022-07-05T08:31:27;23.30;99.50
33067;DHT22;19428;49.024;8.366;2022-07-05T08:33:53;23.40;99.90
33067;DHT22;19428;49.024;8.366;2022-07-05T08:36:18;23.30;99.90
33067;DHT22;19428;49.024;8.366;2022-07-05T08:38:44;23.80;99.30
33067;DHT22;19428;49.024;8.366;2022-07-05T08:41:11;23.60;99.40
33067;DHT22;19428;49.024;8.366;2022-07-05T08:43:41;23.30;99.00
33067;DHT22;19428;49.024;8.366;2022-07-05T08:46:11;23.80;99.90
33067;DHT22;19428;49.024;8.366;2022-07-05T08:48:39;24.10;99.50
33067;DHT22;19428;49.024;8.366;2022-07-05T08:51:13;24.00;97.50
33067;DHT22;19428;49.024;8.366;2022-07-05T08:53:40;23.60;99.90
33067;DHT22;19428;49.024;8.366;2022-07-05T08:56:07;24.30;99.80
33067;DHT22;19428;49.024;8.366;2022-07-05T08:58:33;24.40;97.20
33067;DHT22;19428;49.024;8.366;2022-07-05T09:01:00;24.00;97.30
33067;DHT22;19428;49.024;8.366;2022-07-05T09:03:31;23.60;98.10
33067;DHT22;19428;49.024;8.366;2022-07-05T09:05:58;23.90;99.00
33067;DHT22;19428;49.024;8.366;2022-07-05T09:08:26;24.30;98.60
33067;DHT22;19428;49.024;8.366;2022-07-05T09:10:52;24.40;97.20
33067;DHT22;19428;49.024;8.366;2022-07-05T09:13:18;24.30;97.50
33067;DHT22;19428;49.024;8.366;2022-07-05T09:15:44;24.30;96.30
33067;DHT22;19428;49.024;8.366;2022-07-05T09:18:10;24.20;97.00
33067;DHT22;19428;49.024;8.366;2022-07-05T09:20:36;24.50;95.90
33067;DHT22;19428;49.024;8.366;2022-07-05T09:23:01;24.60;95.40
33067;DHT22;19428;49.024;8.366;2022-07-05T09:25:29;24.70;95.60
33067;DHT22;19428;49.024;8.366;2022-07-05T09:27:56;24.50;96.40
33067;DHT22;19428;49.024;8.366;2022-07-05T09:30:32;24.50;96.80
33067;DHT22;19428;49.024;8.366;2022-07-05T09:33:14;24.40;95.80
33067;DHT22;19428;49.024;8.366;2022-07-05T09:35:51;24.90;95.50
33067;DHT22;19428;49.024;8.366;2022-07-05T09:38:21;24.80;96.60
33067;DHT22;19428;49.024;8.366;2022-07-05T09:40:48;24.70;95.30
33067;DHT22;19428;49.024;8.366;2022-07-05T09:43:19;25.30;96.80
33067;DHT22;19428;49.024;8.366;2022-07-05T09:48:22;25.40;95.60
33067;DHT22;19428;49.024;8.366;2022-07-05T09:50:49;25.80;96.40
33067;DHT22;19428;49.024;8.366;2022-07-05T09:53:18;25.70;95.40
33067;DHT22;19428;49.024;8.366;2022-07-05T09:56:01;26.00;92.60
33067;DHT22;19428;49.024;8.366;2022-07-05T09:58:27;26.00;93.20
33067;DHT22;19428;49.024;8.366;2022-07-05T10:00:53;25.60;90.70
33067;DHT22;19428;49.024;8.366;2022-07-05T10:03:18;25.50;89.70
33067;DHT22;19428;49.024;8.366;2022-07-05T10:05:44;25.40;90.90
33067;DHT22;19428;49.024;8.366;2022-07-05T10:08:10;25.50;90.70
33067;DHT22;19428;49.024;8.366;2022-07-05T10:10:38;25.80;90.60
33067;DHT22;19428;49.024;8.366;2022-07-05T10:13:06;25.80;90.40
33067;DHT22;19428;49.024;8.366;2022-07-05T10:15:34;25.90;90.20
33067;DHT22;19428;49.024;8.366;2022-07-05T10:23:07;26.20;89.20
33067;DHT22;19428;49.024;8.366;2022-07-05T10:25:35;25.90;89.00
33067;DHT22;19428;49.024;8.366;2022-07-05T10:28:01;25.50;90.20
33067;DHT22;19428;49.024;8.366;2022-07-05T10:30:26;25.80;87.20
33067;DHT22;19428;49.024;8.366;2022-07-05T10:32:53;25.90;90.30
33067;DHT22;19428;49.024;8.366;2022-07-05T10:35:20;26.30;90.70
33067;DHT22;19428;49.024;8.366;2022-07-05T10:37:47;26.20;89.90
33067;DHT22;19428;49.024;8.366;2022-07-05T10:40:15;26.10;87.10
33067;DHT22;19428;49.024;8.366;2022-07-05T10:42:47;26.60;89.60
33067;DHT22;19428;49.024;8.366;2022-07-05T10:45:38;26.40;85.30
33067;DHT22;19428;49.024;8.366;2022-07-05T10:50:52;26.50;81.50
33067;DHT22;19428;49.024;8.366;2022-07-05T10:58:21;27.10;79.40
33067;DHT22;19428;49.024;8.366;2022-07-05T11:00:48;26.60;83.60
33067;DHT22;19428;49.024;8.366;2022-07-05T11:03:36;26.40;80.80
33067;DHT22;19428;49.024;8.366;2022-07-05T11:06:02;27.10;79.50
33067;DHT22;19428;49.024;8.366;2022-07-05T11:08:29;27.10;79.90
33067;DHT22;19428;49.024;8.366;2022-07-05T11:11:28;26.70;80.70
33067;DHT22;19428;49.024;8.366;2022-07-05T11:13:54;27.60;82.10
33067;DHT22;19428;49.024;8.366;2022-07-05T11:16:25;27.80;78.70
33067;DHT22;19428;49.024;8.366;2022-07-05T11:21:36;27.50;80.00
33067;DHT22;19428;49.024;8.366;2022-07-05T11:26:51;28.40;76.00
33067;DHT22;19428;49.024;8.366;2022-07-05T11:29:42;28.10;78.80
33067;DHT22;19428;49.024;8.366;2022-07-05T11:34:53;27.30;75.00
33067;DHT22;19428;49.024;8.366;2022-07-05T11:37:26;26.90;75.90
33067;DHT22;19428;49.024;8.366;2022-07-05T11:42:37;28.20;77.50
33067;DHT22;19428;49.024;8.366;2022-07-05T11:45:08;27.80;76.30
33067;DHT22;19428;49.024;8.366;2022-07-05T11:47:35;27.00;77.10
33067;DHT22;19428;49.024;8.366;2022-07-05T11:50:01;27.70;76.40
33067;DHT22;19428;49.024;8.366;2022-07-05T11:52:30;28.20;75.50
33067;DHT22;19428;49.024;8.366;2022-07-05T11:54:57;29.20;77.60
33067;DHT22;19428;49.024;8.366;2022-07-05T11:57:23;30.20;75.40
33067;DHT22;19428;49.024;8.366;2022-07-05T11:59:49;29.20;73.30
33067;DHT22;19428;49.024;8.366;2022-07-05T12:02:15;28.70;73.20
33067;DHT22;19428;49.024;8.366;2022-07-05T12:04:51;28.90;72.30
33067;DHT22;19428;49.024;8.366;2022-07-05T12:07:32;29.70;74.50
33067;DHT22;19428;49.024;8.366;2022-07-05T12:09:59;29.90;73.80
33067;DHT22;19428;49.024;8.366;2022-07-05T12:12:44;30.00;71.80
33067;DHT22;19428;49.024;8.366;2022-07-05T12:15:14;29.80;71.40
33067;DHT22;19428;49.024;8.366;2022-07-05T12:17:42;30.10;68.20
33067;DHT22;19428;49.024;8.366;2022-07-05T12:20:11;29.10;69.20
33067;DHT22;19428;49.024;8.366;2022-07-05T12:22:39;28.50;70.50
33067;DHT22;19428;49.024;8.366;2022-07-05T12:25:08;28.50;69.10
33067;DHT22;19428;49.024;8.366;2022-07-05T12:27:37;29.90;66.40
33067;DHT22;19428;49.024;8.366;2022-07-05T12:30:04;29.60;66.70
33067;DHT22;19428;49.024;8.366;2022-07-05T12:32:30;28.50;70.30
33067;DHT22;19428;49.024;8.366;2022-07-05T12:34:59;27.80;72.30
33067;DHT22;19428;49.024;8.366;2022-07-05T12:37:26;28.20;72.80
33067;DHT22;19428;49.024;8.366;2022-07-05T12:40:06;29.90;72.20
33067;DHT22;19428;49.024;8.366;2022-07-05T12:42:36;30.40;70.30
33067;DHT22;19428;49.024;8.366;2022-07-05T12:45:13;30.70;71.00
33067;DHT22;19428;49.024;8.366;2022-07-05T12:47:49;31.30;69.70
33067;DHT22;19428;49.024;8.366;2022-07-05T12:50:22;29.60;65.70
33067;DHT22;19428;49.024;8.366;2022-07-05T12:55:19;29.50;65.50
33067;DHT22;19428;49.024;8.366;2022-07-05T12:58:03;29.40;68.00
33067;DHT22;19428;49.024;8.366;2022-07-05T13:00:29;30.90;65.70
33067;DHT22;19428;49.024;8.366;2022-07-05T13:02:55;31.10;65.50
33067;DHT22;19428;49.024;8.366;2022-07-05T13:05:23;31.30;66.50
33067;DHT22;19428;49.024;8.366;2022-07-05T13:07:50;29.70;64.30
33067;DHT22;19428;49.024;8.366;2022-07-05T13:10:21;30.30;67.30
33067;DHT22;19428;49.024;8.366;2022-07-05T13:12:48;31.50;65.40
33067;DHT22;19428;49.024;8.366;2022-07-05T13:15:14;31.10;61.80
33067;DHT22;19428;49.024;8.366;2022-07-05T13:17:40;30.40;66.00
33067;DHT22;19428;49.024;8.366;2022-07-05T13:20:07;32.10;64.40
33067;DHT22;19428;49.024;8.366;2022-07-05T13:22:32;32.30;61.50
33067;DHT22;19428;49.024;8.366;2022-07-05T13:24:58;30.30;64.40
33067;DHT22;19428;49.024;8.366;2022-07-05T13:27:24;30.50;62.60
33067;DHT22;19428;49.024;8.366;2022-07-05T13:29:49;30.50;62.30
33067;DHT22;19428;49.024;8.366;2022-07-05T13:32:15;30.90;63.30
33067;DHT22;19428;49.024;8.366;2022-07-05T13:34:45;31.40;63.60
33067;DHT22;19428;49.024;8.366;2022-07-05T13:37:11;30.80;62.90
33067;DHT22;19428;49.024;8.366;2022-07-05T13:39:37;30.60;62.50
33067;DHT22;19428;49.024;8.366;2022-07-05T13:42:05;30.30;62.80
33067;DHT22;19428;49.024;8.366;2022-07-05T13:44:31;30.30;65.60
33067;DHT22;19428;49.024;8.366;2022-07-05T13:46:56;30.90;61.90
33067;DHT22;19428;49.024;8.366;2022-07-05T13:49:22;31.80;60.80
33067;DHT22;19428;49.024;8.366;2022-07-05T13:51:48;30.70;59.60
33067;DHT22;19428;49.024;8.366;2022-07-05T13:54:13;29.90;61.20
33067;DHT22;19428;49.024;8.366;2022-07-05T13:56:40;30.10;60.60
33067;DHT22;19428;49.024;8.366;2022-07-05T13:59:05;30.10;60.00
33067;DHT22;19428;49.024;8.366;2022-07-05T14:01:31;30.90;59.20
33067;DHT22;19428;49.024;8.366;2022-07-05T14:03:58;30.90;60.00
33067;DHT22;19428;49.024;8.366;2022-07-05T14:06:25;30.80;62.60
33067;DHT22;19428;49.024;8.366;2022-07-05T14:08:50;30.10;60.20
33067;DHT22;19428;49.024;8.366;2022-07-05T14:11:16;30.60;60.30
33067;DHT22;19428;49.024;8.366;2022-07-05T14:13:41;29.90;60.60
33067;DHT22;19428;49.024;8.366;2022-07-05T14:16:07;31.00;58.40
33067;DHT22;19428;49.024;8.366;2022-07-05T14:18:34;31.50;60.30
33067;DHT22;19428;49.024;8.366;2022-07-05T14:21:00;31.90;58.50
33067;DHT22;19428;49.024;8.366;2022-07-05T14:23:26;30.80;56.20
33067;DHT22;19428;49.024;8.366;2022-07-05T14:25:51;30.00;58.00
33067;DHT22;19428;49.024;8.366;2022-07-05T14:28:17;30.50;59.70
33067;DHT22;19428;49.024;8.366;2022-07-05T14:30:45;30.30;58.30
33067;DHT22;19428;49.024;8.366;2022-07-05T14:33:12;29.90;59.40
33067;DHT22;19428;49.024;8.366;2022-07-05T14:35:39;30.20;58.60
33067;DHT22;19428;49.024;8.366;2022-07-05T14:38:06;30.00;58.50
33067;DHT22;19428;49.024;8.366;2022-07-05T14:40:31;30.30;58.20
33067;DHT22;19428;49.024;8.366;2022-07-05T14:42:58;30.50;59.30
33067;DHT22;19428;49.024;8.366;2022-07-05T14:45:24;30.00;60.00
33067;DHT22;19428;49.024;8.366;2022-07-05T14:47:51;29.10;58.90
33067;DHT22;19428;49.024;8.366;2022-07-05T14:50:17;28.80;58.20
33067;DHT22;19428;49.024;8.366;2022-07-05T14:52:43;29.20;58.40
33067;DHT22;19428;49.024;8.366;2022-07-05T14:55:09;30.10;56.60
33067;DHT22;19428;49.024;8.366;2022-07-05T14:57:38;30.70;57.70
33067;DHT22;19428;49.024;8.366;2022-07-05T15:00:07;30.10;55.20
33067;DHT22;19428;49.024;8.366;2022-07-05T15:02:33;30.70;55.50
33067;DHT22;19428;49.024;8.366;2022-07-05T15:04:59;30.60;54.90
33067;DHT22;19428;49.024;8.366;2022-07-05T15:07:24;30.50;56.10
33067;DHT22;19428;49.024;8.366;2022-07-05T15:09:50;30.20;55.70
33067;DHT22;19428;49.024;8.366;2022-07-05T15:12:15;29.50;55.50
33067;DHT22;19428;49.024;8.366;2022-07-05T15:14:42;29.90;56.00
33067;DHT22;19428;49.024;8.366;2022-07-05T15:17:08;29.50;54.70
33067;DHT22;19428;49.024;8.366;2022-07-05T15:19:33;29.70;54.60
33067;DHT22;19428;49.024;8.366;2022-07-05T15:21:59;30.50;55.80
33067;DHT22;19428;49.024;8.366;2022-07-05T15:24:25;30.60;55.40
33067;DHT22;19428;49.024;8.366;2022-07-05T15:26:52;29.30;55.90
33067;DHT22;19428;49.024;8.366;2022-07-05T15:29:17;28.70;56.30
33067;DHT22;19428;49.024;8.366;2022-07-05T15:31:43;29.70;56.60
33067;DHT22;19428;49.024;8.366;2022-07-05T15:34:08;29.40;55.10
33067;DHT22;19428;49.024;8.366;2022-07-05T15:36:34;29.70;57.90
33067;DHT22;19428;49.024;8.366;2022-07-05T15:39:01;30.40;55.20
33067;DHT22;19428;49.024;8.366;2022-07-05T15:41:28;31.10;56.10
33067;DHT22;19428;49.024;8.366;2022-07-05T15:43:54;31.00;55.10
33067;DHT22;19428;49.024;8.366;2022-07-05T15:46:20;31.20;52.00
33067;DHT22;19428;49.024;8.366;2022-07-05T15:48:45;31.70;53.40
33067;DHT22;19428;49.024;8.366;2022-07-05T15:51:13;32.00;54.60
33067;DHT22;19428;49.024;8.366;2022-07-05T15:53:38;31.00;51.20
33067;DHT22;19428;49.024;8.366;2022-07-05T15:56:04;30.40;51.60
33067;DHT22;19428;49.024;8.366;2022-07-05T15:58:31;30.40;52.00
33067;DHT22;19428;49.024;8.366;2022-07-05T16:00:58;30.90;50.30
33067;DHT22;19428;49.024;8.366;2022-07-05T16:03:25;31.90;50.50